sensor_id;sensor_type;location;lat;lon;timestamp;P1;durP1;ratioP1;P2;durP2;ratioP2
37805;SDS011;25082;50.870;0.022;2023-12-20T00:01:24;6.10;;;2.05;;
37805;SDS011;25082;50.870;0.022;2023-12-20T00:03:50;4.60;;;1.40;;
37805;SDS011;25082;50.870;0.022;2023-12-20T00:06:16;3.72;;;1.05;;
37805;SDS011;25082;50.870;0.022;2023-12-20T00:08:42;1.35;;;0.82;;
37805;SDS011;25082;50.870;0.022;2023-12-20T00:11:09;3.80;;;1.30;;
37805;SDS011;25082;50.870;0.022;2023-12-20T00:13:34;3.95;;;1.00;;
37805;SDS011;25082;50.870;0.022;2023-12-20T00:16:00;3.25;;;0.90;;
37805;SDS011;25082;50.870;0.022;2023-12-20T00:18:26;3.63;;;1.02;;
37805;SDS011;25082;50.870;0.022;2023-12-20T00:20:52;4.68;;;1.20;;
37805;SDS011;25082;50.870;0.022;2023-12-20T00:23:17;3.13;;;1.30;;
37805;SDS011;25082;50.870;0.022;2023-12-20T00:25:43;2.90;;;1.02;;
37805;SDS011;25082;50.870;0.022;2023-12-20T00:28:09;2.33;;;0.80;;
37805;SDS011;25082;50.870;0.022;2023-12-20T00:30:35;3.15;;;1.10;;
37805;SDS011;25082;50.870;0.022;2023-12-20T00:33:01;6.45;;;1.45;;
37805;SDS011;25082;50.870;0.022;2023-12-20T00:35:27;3.92;;;1.40;;
37805;SDS011;25082;50.870;0.022;2023-12-20T00:37:53;6.55;;;1.73;;
37805;SDS011;25082;50.870;0.022;2023-12-20T00:40:19;4.35;;;1.35;;
37805;SDS011;25082;50.870;0.022;2023-12-20T00:42:45;4.63;;;0.95;;
37805;SDS011;25082;50.870;0.022;2023-12-20T00:45:12;5.30;;;1.50;;
37805;SDS011;25082;50.870;0.022;2023-12-20T00:47:38;5.53;;;1.08;;
37805;SDS011;25082;50.870;0.022;2023-12-20T00:50:03;3.03;;;0.90;;
37805;SDS011;25082;50.870;0.022;2023-12-20T00:52:30;3.38;;;1.15;;
37805;SDS011;25082;50.870;0.022;2023-12-20T00:54:55;3.83;;;1.40;;
37805;SDS011;25082;50.870;0.022;2023-12-20T00:57:21;3.10;;;1.00;;
37805;SDS011;25082;50.870;0.022;2023-12-20T00:59:47;4.00;;;0.93;;
37805;SDS011;25082;50.870;0.022;2023-12-20T01:02:13;1.77;;;0.75;;
37805;SDS011;25082;50.870;0.022;2023-12-20T01:04:38;4.95;;;1.08;;
37805;SDS011;25082;50.870;0.022;2023-12-20T01:07:04;4.82;;;1.30;;
37805;SDS011;25082;50.870;0.022;2023-12-20T01:09:30;6.82;;;1.42;;
37805;SDS011;25082;50.870;0.022;2023-12-20T01:11:56;3.78;;;1.10;;
37805;SDS011;25082;50.870;0.022;2023-12-20T01:14:21;4.18;;;1.20;;
37805;SDS011;25082;50.870;0.022;2023-12-20T01:16:47;5.25;;;1.45;;
37805;SDS011;25082;50.870;0.022;2023-12-20T01:19:13;3.33;;;1.15;;
37805;SDS011;25082;50.870;0.022;2023-12-20T01:21:40;3.53;;;1.40;;
37805;SDS011;25082;50.870;0.022;2023-12-20T01:24:05;4.22;;;0.90;;
37805;SDS011;25082;50.870;0.022;2023-12-20T01:26:31;3.42;;;1.27;;
37805;SDS011;25082;50.870;0.022;2023-12-20T01:28:57;2.95;;;1.10;;
37805;SDS011;25082;50.870;0.022;2023-12-20T01:31:23;4.03;;;1.20;;
37805;SDS011;25082;50.870;0.022;2023-12-20T01:33:48;4.30;;;1.20;;
37805;SDS011;25082;50.870;0.022;2023-12-20T01:36:14;3.20;;;1.20;;
37805;SDS011;25082;50.870;0.022;2023-12-20T01:38:40;6.28;;;1.63;;
37805;SDS011;25082;50.870;0.022;2023-12-20T01:41:06;3.42;;;1.35;;
37805;SDS011;25082;50.870;0.022;2023-12-20T01:43:31;3.13;;;1.10;;
37805;SDS011;25082;50.870;0.022;2023-12-20T01:45:57;4.88;;;1.50;;
37805;SDS011;25082;50.870;0.022;2023-12-20T01:48:24;5.80;;;1.10;;
37805;SDS011;25082;50.870;0.022;2023-12-20T01:50:50;4.32;;;1.75;;
37805;SDS011;25082;50.870;0.022;2023-12-20T01:53:16;5.22;;;1.35;;
37805;SDS011;25082;50.870;0.022;2023-12-20T01:55:45;3.42;;;1.15;;
37805;SDS011;25082;50.870;0.022;2023-12-20T01:58:13;4.38;;;0.95;;
37805;SDS011;25082;50.870;0.022;2023-12-20T02:00:40;4.68;;;1.10;;
37805;SDS011;25082;50.870;0.022;2023-12-20T02:03:06;3.15;;;1.33;;
37805;SDS011;25082;50.870;0.022;2023-12-20T02:05:33;3.33;;;1.17;;
37805;SDS011;25082;50.870;0.022;2023-12-20T02:08:00;4.95;;;1.38;;
37805;SDS011;25082;50.870;0.022;2023-12-20T02:10:26;5.47;;;1.42;;
37805;SDS011;25082;50.870;0.022;2023-12-20T02:12:54;5.88;;;1.92;;
37805;SDS011;25082;50.870;0.022;2023-12-20T02:15:20;2.85;;;1.33;;
37805;SDS011;25082;50.870;0.022;2023-12-20T02:17:46;5.20;;;1.50;;
37805;SDS011;25082;50.870;0.022;2023-12-20T02:20:13;5.88;;;1.70;;
37805;SDS011;25082;50.870;0.022;2023-12-20T02:22:39;6.43;;;1.50;;
37805;SDS011;25082;50.870;0.022;2023-12-20T02:25:05;3.58;;;1.20;;
37805;SDS011;25082;50.870;0.022;2023-12-20T02:27:31;4.20;;;1.20;;
37805;SDS011;25082;50.870;0.022;2023-12-20T02:29:57;5.57;;;1.75;;
37805;SDS011;25082;50.870;0.022;2023-12-20T02:32:23;6.40;;;1.35;;
37805;SDS011;25082;50.870;0.022;2023-12-20T02:34:52;5.20;;;1.27;;
37805;SDS011;25082;50.870;0.022;2023-12-20T02:37:19;8.00;;;1.75;;
37805;SDS011;25082;50.870;0.022;2023-12-20T02:39:45;3.88;;;1.00;;
37805;SDS011;25082;50.870;0.022;2023-12-20T02:42:11;3.47;;;1.63;;
37805;SDS011;25082;50.870;0.022;2023-12-20T02:44:37;5.60;;;1.35;;
37805;SDS011;25082;50.870;0.022;2023-12-20T02:47:02;7.07;;;1.65;;
37805;SDS011;25082;50.870;0.022;2023-12-20T02:49:28;6.07;;;1.45;;
37805;SDS011;25082;50.870;0.022;2023-12-20T02:51:54;3.30;;;1.15;;
37805;SDS011;25082;50.870;0.022;2023-12-20T02:54:20;5.00;;;1.42;;
37805;SDS011;25082;50.870;0.022;2023-12-20T02:56:46;5.65;;;1.23;;
37805;SDS011;25082;50.870;0.022;2023-12-20T02:59:13;4.10;;;0.98;;
37805;SDS011;25082;50.870;0.022;2023-12-20T03:01:42;4.10;;;1.10;;
37805;SDS011;25082;50.870;0.022;2023-12-20T03:04:09;5.63;;;1.38;;
37805;SDS011;25082;50.870;0.022;2023-12-20T03:06:35;3.85;;;1.38;;
37805;SDS011;25082;50.870;0.022;2023-12-20T03:09:01;4.00;;;1.05;;
37805;SDS011;25082;50.870;0.022;2023-12-20T03:11:27;5.38;;;1.42;;
37805;SDS011;25082;50.870;0.022;2023-12-20T03:13:53;4.38;;;1.63;;
37805;SDS011;25082;50.870;0.022;2023-12-20T03:16:22;3.53;;;1.33;;
37805;SDS011;25082;50.870;0.022;2023-12-20T03:18:48;3.15;;;1.35;;
37805;SDS011;25082;50.870;0.022;2023-12-20T03:21:14;5.07;;;1.40;;
37805;SDS011;25082;50.870;0.022;2023-12-20T03:23:40;5.38;;;1.60;;
37805;SDS011;25082;50.870;0.022;2023-12-20T03:26:06;5.25;;;1.40;;
37805;SDS011;25082;50.870;0.022;2023-12-20T03:28:33;6.53;;;1.70;;
37805;SDS011;25082;50.870;0.022;2023-12-20T03:31:00;4.15;;;1.40;;
37805;SDS011;25082;50.870;0.022;2023-12-20T03:33:27;8.25;;;2.28;;
37805;SDS011;25082;50.870;0.022;2023-12-20T03:35:53;3.38;;;1.05;;
37805;SDS011;25082;50.870;0.022;2023-12-20T03:38:19;5.28;;;1.52;;
37805;SDS011;25082;50.870;0.022;2023-12-20T03:40:45;4.32;;;1.33;;
37805;SDS011;25082;50.870;0.022;2023-12-20T03:43:11;5.45;;;1.38;;
37805;SDS011;25082;50.870;0.022;2023-12-20T03:45:36;4.35;;;1.42;;
37805;SDS011;25082;50.870;0.022;2023-12-20T03:48:02;4.03;;;1.50;;
37805;SDS011;25082;50.870;0.022;2023-12-20T03:50:28;6.57;;;1.90;;
37805;SDS011;25082;50.870;0.022;2023-12-20T03:52:54;4.57;;;1.83;;
37805;SDS011;25082;50.870;0.022;2023-12-20T03:55:20;4.90;;;1.70;;
37805;SDS011;25082;50.870;0.022;2023-12-20T03:57:49;5.65;;;1.48;;
37805;SDS011;25082;50.870;0.022;2023-12-20T04:00:14;4.43;;;1.00;;
37805;SDS011;25082;50.870;0.022;2023-12-20T04:02:41;4.93;;;1.63;;
37805;SDS011;25082;50.870;0.022;2023-12-20T04:05:07;4.68;;;1.05;;
37805;SDS011;25082;50.870;0.022;2023-12-20T04:07:34;6.50;;;1.67;;
37805;SDS011;25082;50.870;0.022;2023-12-20T04:10:01;4.30;;;1.55;;
37805;SDS011;25082;50.870;0.022;2023-12-20T04:12:28;4.50;;;1.08;;
37805;SDS011;25082;50.870;0.022;2023-12-20T04:14:54;5.53;;;1.45;;
37805;SDS011;25082;50.870;0.022;2023-12-20T04:17:20;7.22;;;1.70;;
37805;SDS011;25082;50.870;0.022;2023-12-20T04:19:48;6.38;;;1.42;;
37805;SDS011;25082;50.870;0.022;2023-12-20T04:22:14;7.88;;;1.52;;
37805;SDS011;25082;50.870;0.022;2023-12-20T04:24:40;5.18;;;1.58;;
37805;SDS011;25082;50.870;0.022;2023-12-20T04:27:07;4.43;;;1.25;;
37805;SDS011;25082;50.870;0.022;2023-12-20T04:29:33;6.00;;;1.63;;
37805;SDS011;25082;50.870;0.022;2023-12-20T04:31:59;6.22;;;1.83;;
37805;SDS011;25082;50.870;0.022;2023-12-20T04:34:25;6.82;;;1.73;;
37805;SDS011;25082;50.870;0.022;2023-12-20T04:36:51;9.95;;;2.00;;
37805;SDS011;25082;50.870;0.022;2023-12-20T04:39:17;4.85;;;1.40;;
37805;SDS011;25082;50.870;0.022;2023-12-20T04:41:43;7.97;;;2.00;;
37805;SDS011;25082;50.870;0.022;2023-12-20T04:44:09;4.70;;;1.52;;
37805;SDS011;25082;50.870;0.022;2023-12-20T04:46:35;7.55;;;1.85;;
37805;SDS011;25082;50.870;0.022;2023-12-20T04:49:00;5.03;;;1.17;;
37805;SDS011;25082;50.870;0.022;2023-12-20T04:51:26;7.45;;;1.50;;
37805;SDS011;25082;50.870;0.022;2023-12-20T04:53:52;9.35;;;2.05;;
37805;SDS011;25082;50.870;0.022;2023-12-20T04:56:18;6.43;;;1.92;;
37805;SDS011;25082;50.870;0.022;2023-12-20T04:58:44;7.15;;;1.90;;
37805;SDS011;25082;50.870;0.022;2023-12-20T05:01:10;6.68;;;1.35;;
37805;SDS011;25082;50.870;0.022;2023-12-20T05:03:36;3.88;;;0.98;;
37805;SDS011;25082;50.870;0.022;2023-12-20T05:06:02;6.90;;;1.60;;
37805;SDS011;25082;50.870;0.022;2023-12-20T05:08:28;4.35;;;1.60;;
37805;SDS011;25082;50.870;0.022;2023-12-20T05:10:54;4.82;;;1.58;;
37805;SDS011;25082;50.870;0.022;2023-12-20T05:13:20;3.90;;;1.38;;
37805;SDS011;25082;50.870;0.022;2023-12-20T05:15:46;6.28;;;1.80;;
37805;SDS011;25082;50.870;0.022;2023-12-20T05:18:12;5.05;;;1.77;;
37805;SDS011;25082;50.870;0.022;2023-12-20T05:20:41;8.20;;;1.70;;
37805;SDS011;25082;50.870;0.022;2023-12-20T05:23:07;7.03;;;1.63;;
37805;SDS011;25082;50.870;0.022;2023-12-20T05:25:33;4.88;;;1.95;;
37805;SDS011;25082;50.870;0.022;2023-12-20T05:27:58;6.32;;;1.75;;
37805;SDS011;25082;50.870;0.022;2023-12-20T05:30:24;5.32;;;1.77;;
37805;SDS011;25082;50.870;0.022;2023-12-20T05:32:50;5.13;;;1.65;;
37805;SDS011;25082;50.870;0.022;2023-12-20T05:35:16;4.78;;;1.50;;
37805;SDS011;25082;50.870;0.022;2023-12-20T05:37:42;5.47;;;1.77;;
37805;SDS011;25082;50.870;0.022;2023-12-20T05:40:08;4.93;;;1.67;;
37805;SDS011;25082;50.870;0.022;2023-12-20T05:42:37;7.00;;;1.75;;
37805;SDS011;25082;50.870;0.022;2023-12-20T05:45:03;5.80;;;1.50;;
37805;SDS011;25082;50.870;0.022;2023-12-20T05:47:30;4.07;;;1.20;;
37805;SDS011;25082;50.870;0.022;2023-12-20T05:49:56;6.85;;;1.67;;
37805;SDS011;25082;50.870;0.022;2023-12-20T05:52:21;5.43;;;1.67;;
37805;SDS011;25082;50.870;0.022;2023-12-20T05:54:47;5.22;;;1.58;;
37805;SDS011;25082;50.870;0.022;2023-12-20T05:57:13;10.10;;;2.47;;
37805;SDS011;25082;50.870;0.022;2023-12-20T05:59:39;5.15;;;1.50;;
37805;SDS011;25082;50.870;0.022;2023-12-20T06:02:05;5.07;;;1.60;;
37805;SDS011;25082;50.870;0.022;2023-12-20T06:04:31;7.55;;;1.60;;
37805;SDS011;25082;50.870;0.022;2023-12-20T06:06:57;5.18;;;2.15;;
37805;SDS011;25082;50.870;0.022;2023-12-20T06:09:22;3.58;;;1.48;;
37805;SDS011;25082;50.870;0.022;2023-12-20T06:11:49;4.60;;;1.00;;
37805;SDS011;25082;50.870;0.022;2023-12-20T06:14:14;7.18;;;1.85;;
37805;SDS011;25082;50.870;0.022;2023-12-20T06:16:40;6.35;;;1.20;;
37805;SDS011;25082;50.870;0.022;2023-12-20T06:19:06;6.18;;;1.50;;
37805;SDS011;25082;50.870;0.022;2023-12-20T06:21:32;8.38;;;1.77;;
37805;SDS011;25082;50.870;0.022;2023-12-20T06:23:58;7.03;;;1.50;;
37805;SDS011;25082;50.870;0.022;2023-12-20T06:26:25;4.57;;;1.58;;
37805;SDS011;25082;50.870;0.022;2023-12-20T06:28:50;4.60;;;1.50;;
37805;SDS011;25082;50.870;0.022;2023-12-20T06:31:16;8.75;;;2.53;;
37805;SDS011;25082;50.870;0.022;2023-12-20T06:33:42;6.47;;;1.85;;
37805;SDS011;25082;50.870;0.022;2023-12-20T06:36:12;4.05;;;1.30;;
37805;SDS011;25082;50.870;0.022;2023-12-20T06:38:40;6.45;;;1.70;;
37805;SDS011;25082;50.870;0.022;2023-12-20T06:41:07;7.75;;;1.58;;
37805;SDS011;25082;50.870;0.022;2023-12-20T06:43:33;6.70;;;2.33;;
37805;SDS011;25082;50.870;0.022;2023-12-20T06:46:00;5.82;;;1.08;;
37805;SDS011;25082;50.870;0.022;2023-12-20T06:48:26;5.75;;;1.40;;
37805;SDS011;25082;50.870;0.022;2023-12-20T06:50:51;4.78;;;1.25;;
37805;SDS011;25082;50.870;0.022;2023-12-20T06:53:17;4.82;;;1.52;;
37805;SDS011;25082;50.870;0.022;2023-12-20T06:55:43;4.45;;;1.15;;
37805;SDS011;25082;50.870;0.022;2023-12-20T06:58:09;4.43;;;1.33;;
37805;SDS011;25082;50.870;0.022;2023-12-20T07:00:35;4.70;;;1.60;;
37805;SDS011;25082;50.870;0.022;2023-12-20T07:03:00;4.60;;;1.60;;
37805;SDS011;25082;50.870;0.022;2023-12-20T07:05:26;5.93;;;1.65;;
37805;SDS011;25082;50.870;0.022;2023-12-20T07:07:52;5.90;;;1.65;;
37805;SDS011;25082;50.870;0.022;2023-12-20T07:10:17;6.50;;;1.52;;
37805;SDS011;25082;50.870;0.022;2023-12-20T07:12:43;4.88;;;1.52;;
37805;SDS011;25082;50.870;0.022;2023-12-20T07:15:09;7.00;;;2.08;;
37805;SDS011;25082;50.870;0.022;2023-12-20T07:17:35;5.18;;;1.58;;
37805;SDS011;25082;50.870;0.022;2023-12-20T07:20:02;6.80;;;1.67;;
37805;SDS011;25082;50.870;0.022;2023-12-20T07:22:33;6.10;;;1.50;;
37805;SDS011;25082;50.870;0.022;2023-12-20T07:24:59;5.80;;;1.73;;
37805;SDS011;25082;50.870;0.022;2023-12-20T07:27:25;6.80;;;1.65;;
37805;SDS011;25082;50.870;0.022;2023-12-20T07:29:51;4.28;;;1.63;;
37805;SDS011;25082;50.870;0.022;2023-12-20T07:32:18;5.20;;;2.28;;
37805;SDS011;25082;50.870;0.022;2023-12-20T07:34:44;4.30;;;1.65;;
37805;SDS011;25082;50.870;0.022;2023-12-20T07:37:10;4.82;;;1.35;;
37805;SDS011;25082;50.870;0.022;2023-12-20T07:39:39;6.25;;;2.20;;
37805;SDS011;25082;50.870;0.022;2023-12-20T07:42:06;4.78;;;1.55;;
37805;SDS011;25082;50.870;0.022;2023-12-20T07:44:34;3.85;;;1.30;;
37805;SDS011;25082;50.870;0.022;2023-12-20T07:47:03;4.90;;;1.40;;
37805;SDS011;25082;50.870;0.022;2023-12-20T07:49:32;5.25;;;1.38;;
37805;SDS011;25082;50.870;0.022;2023-12-20T07:51:58;6.53;;;1.55;;
37805;SDS011;25082;50.870;0.022;2023-12-20T07:54:24;4.82;;;1.25;;
37805;SDS011;25082;50.870;0.022;2023-12-20T07:56:49;6.65;;;1.75;;
37805;SDS011;25082;50.870;0.022;2023-12-20T07:59:15;4.50;;;1.70;;
37805;SDS011;25082;50.870;0.022;2023-12-20T08:01:41;5.93;;;1.60;;
37805;SDS011;25082;50.870;0.022;2023-12-20T08:04:07;3.22;;;1.33;;
37805;SDS011;25082;50.870;0.022;2023-12-20T08:06:33;4.22;;;1.17;;
37805;SDS011;25082;50.870;0.022;2023-12-20T08:08:59;6.15;;;1.40;;
37805;SDS011;25082;50.870;0.022;2023-12-20T08:11:25;5.10;;;1.70;;
37805;SDS011;25082;50.870;0.022;2023-12-20T08:13:50;6.28;;;1.63;;
37805;SDS011;25082;50.870;0.022;2023-12-20T08:16:16;5.18;;;1.58;;
37805;SDS011;25082;50.870;0.022;2023-12-20T08:18:42;5.55;;;1.35;;
37805;SDS011;25082;50.870;0.022;2023-12-20T08:21:08;3.75;;;1.10;;
37805;SDS011;25082;50.870;0.022;2023-12-20T08:23:34;5.72;;;1.88;;
37805;SDS011;25082;50.870;0.022;2023-12-20T08:26:07;3.97;;;1.65;;
37805;SDS011;25082;50.870;0.022;2023-12-20T08:28:33;6.40;;;1.63;;
37805;SDS011;25082;50.870;0.022;2023-12-20T08:30:59;4.63;;;1.30;;
37805;SDS011;25082;50.870;0.022;2023-12-20T08:33:25;4.07;;;1.20;;
37805;SDS011;25082;50.870;0.022;2023-12-20T08:35:51;5.65;;;1.30;;
37805;SDS011;25082;50.870;0.022;2023-12-20T08:38:17;6.22;;;1.70;;
37805;SDS011;25082;50.870;0.022;2023-12-20T08:40:43;3.72;;;1.20;;
37805;SDS011;25082;50.870;0.022;2023-12-20T08:43:09;7.97;;;1.63;;
37805;SDS011;25082;50.870;0.022;2023-12-20T08:45:35;3.42;;;0.98;;
37805;SDS011;25082;50.870;0.022;2023-12-20T08:48:00;5.72;;;1.40;;
37805;SDS011;25082;50.870;0.022;2023-12-20T08:50:26;3.80;;;1.33;;
37805;SDS011;25082;50.870;0.022;2023-12-20T08:52:52;3.33;;;1.38;;
37805;SDS011;25082;50.870;0.022;2023-12-20T08:55:18;5.10;;;1.77;;
37805;SDS011;25082;50.870;0.022;2023-12-20T08:57:44;4.10;;;1.40;;
37805;SDS011;25082;50.870;0.022;2023-12-20T09:00:10;6.45;;;1.55;;
37805;SDS011;25082;50.870;0.022;2023-12-20T09:02:36;8.07;;;2.05;;
37805;SDS011;25082;50.870;0.022;2023-12-20T09:05:02;6.90;;;1.70;;
37805;SDS011;25082;50.870;0.022;2023-12-20T09:07:28;5.32;;;1.70;;
37805;SDS011;25082;50.870;0.022;2023-12-20T09:09:58;7.20;;;1.92;;
37805;SDS011;25082;50.870;0.022;2023-12-20T09:12:24;5.65;;;1.65;;
37805;SDS011;25082;50.870;0.022;2023-12-20T09:14:50;4.07;;;1.75;;
37805;SDS011;25082;50.870;0.022;2023-12-20T09:17:17;2.88;;;1.50;;
37805;SDS011;25082;50.870;0.022;2023-12-20T09:19:43;4.82;;;1.50;;
37805;SDS011;25082;50.870;0.022;2023-12-20T09:22:10;5.10;;;1.55;;
37805;SDS011;25082;50.870;0.022;2023-12-20T09:24:35;6.80;;;1.88;;
37805;SDS011;25082;50.870;0.022;2023-12-20T09:27:01;3.50;;;1.33;;
37805;SDS011;25082;50.870;0.022;2023-12-20T09:29:27;5.30;;;1.92;;
37805;SDS011;25082;50.870;0.022;2023-12-20T09:31:54;3.75;;;1.33;;
37805;SDS011;25082;50.870;0.022;2023-12-20T09:34:20;5.75;;;1.58;;
37805;SDS011;25082;50.870;0.022;2023-12-20T09:36:46;5.55;;;1.48;;
37805;SDS011;25082;50.870;0.022;2023-12-20T09:39:16;6.45;;;1.48;;
37805;SDS011;25082;50.870;0.022;2023-12-20T09:42:07;5.03;;;2.00;;
37805;SDS011;25082;50.870;0.022;2023-12-20T09:44:33;4.88;;;1.52;;
37805;SDS011;25082;50.870;0.022;2023-12-20T09:47:01;5.25;;;1.65;;
37805;SDS011;25082;50.870;0.022;2023-12-20T09:49:28;4.78;;;1.42;;
37805;SDS011;25082;50.870;0.022;2023-12-20T09:51:55;4.22;;;1.73;;
37805;SDS011;25082;50.870;0.022;2023-12-20T09:54:22;4.07;;;1.52;;
37805;SDS011;25082;50.870;0.022;2023-12-20T09:56:48;4.88;;;1.65;;
37805;SDS011;25082;50.870;0.022;2023-12-20T09:59:15;4.50;;;1.58;;
37805;SDS011;25082;50.870;0.022;2023-12-20T10:01:41;6.10;;;1.75;;
37805;SDS011;25082;50.870;0.022;2023-12-20T10:04:08;7.43;;;1.95;;
37805;SDS011;25082;50.870;0.022;2023-12-20T10:06:40;4.72;;;1.58;;
37805;SDS011;25082;50.870;0.022;2023-12-20T10:09:07;2.90;;;1.30;;
37805;SDS011;25082;50.870;0.022;2023-12-20T10:11:37;4.32;;;1.55;;
37805;SDS011;25082;50.870;0.022;2023-12-20T10:14:04;5.93;;;1.48;;
37805;SDS011;25082;50.870;0.022;2023-12-20T10:16:30;4.03;;;1.42;;
37805;SDS011;25082;50.870;0.022;2023-12-20T10:18:57;6.50;;;1.48;;
37805;SDS011;25082;50.870;0.022;2023-12-20T10:21:23;4.10;;;1.58;;
37805;SDS011;25082;50.870;0.022;2023-12-20T10:23:51;3.70;;;1.33;;
37805;SDS011;25082;50.870;0.022;2023-12-20T10:26:22;11.93;;;1.73;;
37805;SDS011;25082;50.870;0.022;2023-12-20T10:28:59;6.43;;;1.90;;
37805;SDS011;25082;50.870;0.022;2023-12-20T10:31:30;3.47;;;1.65;;
37805;SDS011;25082;50.870;0.022;2023-12-20T10:33:59;3.80;;;1.13;;
37805;SDS011;25082;50.870;0.022;2023-12-20T10:36:26;5.45;;;1.33;;
37805;SDS011;25082;50.870;0.022;2023-12-20T10:38:54;3.40;;;1.38;;
37805;SDS011;25082;50.870;0.022;2023-12-20T10:41:24;4.25;;;1.38;;
37805;SDS011;25082;50.870;0.022;2023-12-20T10:43:56;5.28;;;1.65;;
37805;SDS011;25082;50.870;0.022;2023-12-20T10:46:25;4.30;;;1.25;;
37805;SDS011;25082;50.870;0.022;2023-12-20T10:48:54;4.53;;;1.63;;
37805;SDS011;25082;50.870;0.022;2023-12-20T10:51:20;5.05;;;1.20;;
37805;SDS011;25082;50.870;0.022;2023-12-20T10:53:47;5.47;;;1.33;;
37805;SDS011;25082;50.870;0.022;2023-12-20T10:56:17;4.18;;;1.55;;
37805;SDS011;25082;50.870;0.022;2023-12-20T10:58:48;3.63;;;1.40;;
37805;SDS011;25082;50.870;0.022;2023-12-20T11:01:14;7.78;;;1.65;;
37805;SDS011;25082;50.870;0.022;2023-12-20T11:09:08;5.55;;;1.52;;
37805;SDS011;25082;50.870;0.022;2023-12-20T11:11:59;3.70;;;1.20;;
37805;SDS011;25082;50.870;0.022;2023-12-20T11:17:26;6.15;;;1.55;;
37805;SDS011;25082;50.870;0.022;2023-12-20T11:22:21;5.05;;;1.55;;
37805;SDS011;25082;50.870;0.022;2023-12-20T11:24:47;5.13;;;1.52;;
37805;SDS011;25082;50.870;0.022;2023-12-20T11:27:15;5.30;;;2.05;;
37805;SDS011;25082;50.870;0.022;2023-12-20T11:29:41;8.60;;;1.45;;
37805;SDS011;25082;50.870;0.022;2023-12-20T11:34:53;12.20;;;2.25;;
37805;SDS011;25082;50.870;0.022;2023-12-20T11:37:20;47.40;;;4.88;;
37805;SDS011;25082;50.870;0.022;2023-12-20T11:39:54;7.18;;;2.38;;
37805;SDS011;25082;50.870;0.022;2023-12-20T11:42:21;8.55;;;1.58;;
37805;SDS011;25082;50.870;0.022;2023-12-20T11:44:47;7.13;;;2.38;;
37805;SDS011;25082;50.870;0.022;2023-12-20T11:47:13;7.72;;;1.80;;
37805;SDS011;25082;50.870;0.022;2023-12-20T11:49:40;7.30;;;2.00;;
37805;SDS011;25082;50.870;0.022;2023-12-20T11:52:06;8.50;;;2.42;;
37805;SDS011;25082;50.870;0.022;2023-12-20T11:54:32;9.15;;;1.85;;
37805;SDS011;25082;50.870;0.022;2023-12-20T11:56:58;11.57;;;2.25;;
37805;SDS011;25082;50.870;0.022;2023-12-20T11:59:23;5.13;;;1.63;;
37805;SDS011;25082;50.870;0.022;2023-12-20T12:01:50;7.75;;;2.53;;
37805;SDS011;25082;50.870;0.022;2023-12-20T12:04:16;6.82;;;1.75;;
37805;SDS011;25082;50.870;0.022;2023-12-20T12:06:43;9.82;;;1.60;;
37805;SDS011;25082;50.870;0.022;2023-12-20T12:09:10;9.32;;;2.50;;
37805;SDS011;25082;50.870;0.022;2023-12-20T12:11:36;12.77;;;1.95;;
37805;SDS011;25082;50.870;0.022;2023-12-20T12:14:01;6.10;;;1.90;;
37805;SDS011;25082;50.870;0.022;2023-12-20T12:16:28;8.85;;;2.38;;
37805;SDS011;25082;50.870;0.022;2023-12-20T12:18:58;11.13;;;1.90;;
37805;SDS011;25082;50.870;0.022;2023-12-20T12:21:24;8.10;;;2.03;;
37805;SDS011;25082;50.870;0.022;2023-12-20T12:23:50;4.93;;;1.77;;
37805;SDS011;25082;50.870;0.022;2023-12-20T12:26:16;9.57;;;1.95;;
37805;SDS011;25082;50.870;0.022;2023-12-20T12:28:42;5.82;;;1.25;;
37805;SDS011;25082;50.870;0.022;2023-12-20T12:31:08;6.22;;;1.80;;
37805;SDS011;25082;50.870;0.022;2023-12-20T12:33:38;5.63;;;2.10;;
37805;SDS011;25082;50.870;0.022;2023-12-20T12:36:06;3.58;;;1.42;;
37805;SDS011;25082;50.870;0.022;2023-12-20T12:38:33;7.80;;;2.10;;
37805;SDS011;25082;50.870;0.022;2023-12-20T12:40:59;6.18;;;1.42;;
37805;SDS011;25082;50.870;0.022;2023-12-20T12:43:25;5.05;;;1.70;;
37805;SDS011;25082;50.870;0.022;2023-12-20T12:45:51;5.07;;;1.45;;
37805;SDS011;25082;50.870;0.022;2023-12-20T12:48:18;7.70;;;1.77;;
37805;SDS011;25082;50.870;0.022;2023-12-20T12:50:45;8.52;;;1.80;;
37805;SDS011;25082;50.870;0.022;2023-12-20T12:53:11;8.23;;;2.30;;
37805;SDS011;25082;50.870;0.022;2023-12-20T12:55:36;5.13;;;1.48;;
37805;SDS011;25082;50.870;0.022;2023-12-20T12:58:02;6.95;;;2.30;;
37805;SDS011;25082;50.870;0.022;2023-12-20T13:00:28;3.65;;;1.40;;
37805;SDS011;25082;50.870;0.022;2023-12-20T13:02:54;7.60;;;1.77;;
37805;SDS011;25082;50.870;0.022;2023-12-20T13:05:19;4.75;;;1.75;;
37805;SDS011;25082;50.870;0.022;2023-12-20T13:07:45;7.60;;;1.80;;
37805;SDS011;25082;50.870;0.022;2023-12-20T13:10:11;7.13;;;2.22;;
37805;SDS011;25082;50.870;0.022;2023-12-20T13:12:37;6.53;;;2.50;;
37805;SDS011;25082;50.870;0.022;2023-12-20T13:15:03;6.75;;;2.00;;
37805;SDS011;25082;50.870;0.022;2023-12-20T13:17:29;6.32;;;2.13;;
37805;SDS011;25082;50.870;0.022;2023-12-20T13:19:55;6.50;;;2.10;;
37805;SDS011;25082;50.870;0.022;2023-12-20T13:22:21;7.50;;;2.50;;
37805;SDS011;25082;50.870;0.022;2023-12-20T13:24:46;11.07;;;3.20;;
37805;SDS011;25082;50.870;0.022;2023-12-20T13:27:12;8.57;;;2.63;;
37805;SDS011;25082;50.870;0.022;2023-12-20T13:29:38;6.68;;;2.05;;
37805;SDS011;25082;50.870;0.022;2023-12-20T13:32:04;11.75;;;5.90;;
37805;SDS011;25082;50.870;0.022;2023-12-20T13:34:30;30.42;;;11.63;;
37805;SDS011;25082;50.870;0.022;2023-12-20T13:36:55;41.15;;;13.93;;
37805;SDS011;25082;50.870;0.022;2023-12-20T13:39:21;49.17;;;13.40;;
37805;SDS011;25082;50.870;0.022;2023-12-20T13:41:47;43.45;;;15.23;;
37805;SDS011;25082;50.870;0.022;2023-12-20T13:44:13;37.85;;;13.25;;
37805;SDS011;25082;50.870;0.022;2023-12-20T13:46:42;43.13;;;14.32;;
37805;SDS011;25082;50.870;0.022;2023-12-20T13:49:08;36.78;;;13.27;;
37805;SDS011;25082;50.870;0.022;2023-12-20T13:51:33;34.03;;;12.20;;
37805;SDS011;25082;50.870;0.022;2023-12-20T13:54:00;23.98;;;9.40;;
37805;SDS011;25082;50.870;0.022;2023-12-20T13:56:25;32.10;;;11.57;;
37805;SDS011;25082;50.870;0.022;2023-12-20T13:58:51;27.52;;;9.52;;
37805;SDS011;25082;50.870;0.022;2023-12-20T14:01:17;26.45;;;9.02;;
37805;SDS011;25082;50.870;0.022;2023-12-20T14:03:43;21.30;;;7.60;;
37805;SDS011;25082;50.870;0.022;2023-12-20T14:06:08;26.95;;;8.38;;
37805;SDS011;25082;50.870;0.022;2023-12-20T14:08:34;25.50;;;7.90;;
37805;SDS011;25082;50.870;0.022;2023-12-20T14:11:01;25.63;;;7.45;;
37805;SDS011;25082;50.870;0.022;2023-12-20T14:13:27;23.95;;;7.68;;
37805;SDS011;25082;50.870;0.022;2023-12-20T14:15:52;26.40;;;6.38;;
37805;SDS011;25082;50.870;0.022;2023-12-20T14:18:19;28.98;;;7.57;;
37805;SDS011;25082;50.870;0.022;2023-12-20T14:20:45;19.38;;;5.57;;
37805;SDS011;25082;50.870;0.022;2023-12-20T14:23:12;22.10;;;6.78;;
37805;SDS011;25082;50.870;0.022;2023-12-20T14:25:41;22.13;;;5.68;;
37805;SDS011;25082;50.870;0.022;2023-12-20T14:28:07;15.38;;;5.07;;
37805;SDS011;25082;50.870;0.022;2023-12-20T14:30:33;14.18;;;5.00;;
37805;SDS011;25082;50.870;0.022;2023-12-20T14:33:00;20.98;;;4.93;;
37805;SDS011;25082;50.870;0.022;2023-12-20T14:35:25;11.23;;;4.20;;
37805;SDS011;25082;50.870;0.022;2023-12-20T14:37:51;14.40;;;4.78;;
37805;SDS011;25082;50.870;0.022;2023-12-20T14:40:18;15.45;;;5.07;;
37805;SDS011;25082;50.870;0.022;2023-12-20T14:42:45;11.02;;;3.72;;
37805;SDS011;25082;50.870;0.022;2023-12-20T14:45:11;17.42;;;4.05;;
37805;SDS011;25082;50.870;0.022;2023-12-20T14:47:41;10.63;;;4.55;;
37805;SDS011;25082;50.870;0.022;2023-12-20T14:50:07;10.20;;;3.88;;
37805;SDS011;25082;50.870;0.022;2023-12-20T14:52:33;15.98;;;3.15;;
37805;SDS011;25082;50.870;0.022;2023-12-20T14:55:02;10.63;;;3.90;;